Time;durP1;ratioP1;P1;durP2;ratioP2;P2;SDS_P1;SDS_P2;PMS_P1;PMS_P2;Temp;Humidity;BMP_temperature;BMP_pressure;BME280_temperature;BME280_humidity;BME280_pressure;Samples;Min_cycle;Max_cycle;Signal;HPM_P1;HPM_P2
2023/01/06 00:00:21;;;;;;;0.50;0.50;;;11.30;99.90;;;;;;4955597;28;20098;-81
2023/01/06 00:02:47;;;;;;;0.52;0.52;;;11.10;99.90;;;;;;4964136;28;20152;-82
2023/01/06 00:05:14;;;;;;;0.60;0.60;;;11.30;99.90;;;;;;4967573;28;20137;-81
2023/01/06 00:07:40;;;;;;;0.60;0.60;;;11.30;99.90;;;;;;4955660;28;20056;-81
2023/01/06 00:10:07;;;;;;;0.60;0.60;;;11.20;99.90;;;;;;4966406;28;20059;-82
2023/01/06 00:12:33;;;;;;;0.50;0.50;;;11.20;99.90;;;;;;4954644;28;20139;-82
2023/01/06 00:14:59;;;;;;;0.50;0.50;;;11.20;99.90;;;;;;4960594;28;20563;-82
2023/01/06 00:17:25;;;;;;;0.60;0.60;;;11.30;99.90;;;;;;4941059;28;20387;-82
2023/01/06 00:19:51;;;;;;;0.50;0.50;;;11.30;99.90;;;;;;4969346;28;20138;-81
2023/01/06 00:22:17;;;;;;;0.50;0.50;;;11.20;99.90;;;;;;4953088;28;20468;-81
2023/01/06 00:24:43;;;;;;;0.50;0.50;;;11.20;99.90;;;;;;4960588;28;20160;-81
2023/01/06 00:27:09;;;;;;;0.55;0.55;;;11.20;99.90;;;;;;4975364;28;20048;-81
2023/01/06 00:29:35;;;;;;;0.60;0.60;;;11.20;99.90;;;;;;4962081;28;20045;-82
2023/01/06 00:32:02;;;;;;;0.52;0.52;;;11.20;99.90;;;;;;4952558;28;20131;-81
2023/01/06 00:34:28;;;;;;;0.60;0.60;;;11.20;99.90;;;;;;4961030;28;20049;-81
2023/01/06 00:36:54;;;;;;;0.60;0.60;;;11.20;99.90;;;;;;4959069;28;20060;-82
2023/01/06 00:39:20;;;;;;;0.50;0.50;;;11.20;99.90;;;;;;4979499;28;20048;-81
2023/01/06 00:42:05;;;;;;;0.50;0.50;;;11.20;99.90;;;;;;4968067;28;20469;-81
2023/01/06 00:44:34;;;;;;;0.50;0.50;;;11.10;99.90;;;;;;4963427;28;20080;-81
2023/01/06 00:47:01;;;;;;;0.50;0.50;;;11.20;99.90;;;;;;4966151;28;20978;-81
2023/01/06 00:49:27;;;;;;;0.50;0.50;;;11.20;99.90;;;;;;4983666;28;20049;-81
2023/01/06 00:51:53;;;;;;;0.52;0.52;;;11.20;99.90;;;;;;4978314;28;20059;-81
2023/01/06 00:54:20;;;;;;;0.50;0.50;;;11.20;99.90;;;;;;4948234;28;20143;-82
2023/01/06 00:56:49;;;;;;;0.60;0.60;;;11.20;99.90;;;;;;4963437;28;20060;-80
2023/01/06 00:59:18;;;;;;;0.60;0.60;;;11.30;99.90;;;;;;4968160;28;20075;-81
2023/01/06 01:01:46;;;;;;;0.50;0.50;;;11.30;99.90;;;;;;4982245;28;20044;-82
2023/01/06 01:04:12;;;;;;;0.60;0.60;;;11.10;99.90;;;;;;4991714;28;20423;-81
2023/01/06 01:06:40;;;;;;;0.50;0.50;;;11.30;99.90;;;;;;4961908;28;20048;-80
2023/01/06 01:09:06;;;;;;;0.60;0.60;;;11.10;99.90;;;;;;4977358;28;20449;-81
2023/01/06 01:14:18;;;;;;;0.60;0.60;;;11.10;99.90;;;;;;4970070;28;20052;-82
2023/01/06 01:16:45;;;;;;;0.50;0.50;;;11.20;99.90;;;;;;4964081;28;20880;-82
2023/01/06 01:19:12;;;;;;;0.50;0.50;;;11.00;99.90;;;;;;4975226;28;20521;-82
2023/01/06 01:21:39;;;;;;;0.50;0.50;;;11.10;99.90;;;;;;4955270;28;20040;-82
2023/01/06 01:24:05;;;;;;;0.50;0.50;;;11.00;99.90;;;;;;4960275;28;20123;-81
2023/01/06 01:26:31;;;;;;;0.60;0.60;;;11.10;99.90;;;;;;4986485;28;20117;-82
2023/01/06 01:28:56;;;;;;;0.60;0.60;;;11.10;99.90;;;;;;4965430;28;20493;-81
2023/01/06 01:31:23;;;;;;;0.60;0.60;;;11.10;99.90;;;;;;4975897;28;20614;-81
2023/01/06 01:33:49;;;;;;;0.50;0.50;;;11.10;99.90;;;;;;4971446;28;20487;-81
2023/01/06 01:36:16;;;;;;;0.60;0.60;;;11.00;99.90;;;;;;4981311;28;20036;-81
2023/01/06 01:38:42;;;;;;;0.50;0.50;;;11.10;99.90;;;;;;4963893;28;20558;-81
2023/01/06 01:41:17;;;;;;;0.60;0.60;;;11.10;99.90;;;;;;4963340;28;20533;-81
2023/01/06 01:43:51;;;;;;;0.55;0.55;;;11.00;99.90;;;;;;4966600;28;20049;-81
2023/01/06 01:46:29;;;;;;;0.60;0.60;;;11.10;99.90;;;;;;4961062;28;20052;-80
2023/01/06 01:48:58;;;;;;;0.52;0.52;;;11.00;99.90;;;;;;4973140;28;20768;-81
2023/01/06 01:51:30;;;;;;;0.60;0.60;;;11.00;99.90;;;;;;4963186;28;20902;-81
2023/01/06 01:53:59;;;;;;;0.60;0.60;;;11.10;99.90;;;;;;4977554;28;20041;-82
2023/01/06 01:56:33;;;;;;;0.60;0.60;;;11.00;99.90;;;;;;4953331;28;20059;-82
2023/01/06 01:59:04;;;;;;;0.60;0.60;;;11.10;99.90;;;;;;4963396;28;20489;-81
2023/01/06 02:01:31;;;;;;;0.50;0.50;;;11.10;99.90;;;;;;4969001;28;20131;-80
2023/01/06 02:03:57;;;;;;;0.50;0.50;;;11.10;99.90;;;;;;4962228;28;20127;-81
2023/01/06 02:06:25;;;;;;;0.60;0.60;;;11.00;99.90;;;;;;4969492;28;20044;-81
2023/01/06 02:08:58;;;;;;;0.52;0.52;;;11.10;99.90;;;;;;4937448;28;20124;-81
2023/01/06 02:11:26;;;;;;;0.50;0.50;;;11.00;99.90;;;;;;4951251;28;20750;-81
2023/01/06 02:13:58;;;;;;;0.60;0.60;;;11.00;99.90;;;;;;4976044;28;20532;-81
2023/01/06 02:16:34;;;;;;;0.60;0.60;;;11.00;99.90;;;;;;4970859;28;20128;-81
2023/01/06 02:19:16;;;;;;;0.50;0.50;;;11.00;99.90;;;;;;4950418;28;20041;-80
2023/01/06 02:22:11;;;;;;;0.60;0.60;;;11.10;99.90;;;;;;4953726;28;20059;-82
2023/01/06 02:24:37;;;;;;;0.60;0.60;;;11.10;99.90;;;;;;4974882;28;20040;-81
2023/01/06 02:27:27;;;;;;;0.50;0.50;;;11.00;99.90;;;;;;4976486;28;20076;-81
2023/01/06 02:29:56;;;;;;;0.60;0.60;;;11.10;99.90;;;;;;4959282;28;20095;-81
2023/01/06 02:32:40;;;;;;;0.60;0.60;;;11.10;99.90;;;;;;4953476;28;20079;-80
2023/01/06 02:35:06;;;;;;;0.60;0.60;;;11.00;99.90;;;;;;4954071;28;20053;-81
2023/01/06 02:37:58;;;;;;;0.60;0.60;;;11.00;99.90;;;;;;4970227;28;20473;-81
2023/01/06 02:40:46;;;;;;;0.60;0.60;;;11.00;99.90;;;;;;4969256;28;20503;-81
2023/01/06 02:43:15;;;;;;;0.60;0.60;;;11.00;99.90;;;;;;4968501;28;20142;-81
2023/01/06 02:45:50;;;;;;;0.60;0.60;;;11.10;99.90;;;;;;4948964;28;21002;-81
2023/01/06 02:48:29;;;;;;;0.60;0.60;;;11.10;99.90;;;;;;4986719;28;20052;-80
2023/01/06 02:51:14;;;;;;;0.52;0.52;;;11.10;99.90;;;;;;4964729;28;20045;-82
2023/01/06 02:53:49;;;;;;;0.60;0.60;;;11.00;99.90;;;;;;4972679;28;20063;-81
2023/01/06 02:56:18;;;;;;;0.60;0.60;;;10.90;99.90;;;;;;4975069;28;20902;-80
2023/01/06 02:59:01;;;;;;;0.55;0.55;;;11.00;99.90;;;;;;4959501;28;20063;-80
2023/01/06 03:01:35;;;;;;;0.52;0.52;;;10.90;99.90;;;;;;4969565;28;20045;-81
2023/01/06 03:04:07;;;;;;;0.60;0.60;;;11.00;99.90;;;;;;4969561;28;20804;-80
2023/01/06 03:06:35;;;;;;;0.50;0.50;;;10.90;99.90;;;;;;4966159;28;20491;-81
2023/01/06 03:09:04;;;;;;;0.50;0.50;;;10.90;99.90;;;;;;4952708;28;20048;-81
2023/01/06 03:11:32;;;;;;;0.50;0.50;;;11.00;99.90;;;;;;4978186;28;20110;-81
2023/01/06 03:14:12;;;;;;;0.55;0.55;;;10.90;99.90;;;;;;4956845;28;20216;-81
2023/01/06 03:16:38;;;;;;;0.55;0.55;;;10.90;99.90;;;;;;4959523;28;20080;-80
2023/01/06 03:19:04;;;;;;;0.60;0.60;;;10.90;99.90;;;;;;4945994;28;20491;-81
2023/01/06 03:21:34;;;;;;;0.60;0.60;;;10.90;99.90;;;;;;4927986;28;20708;-81
2023/01/06 03:24:00;;;;;;;0.60;0.60;;;10.90;99.90;;;;;;4960641;28;20037;-80
2023/01/06 03:26:26;;;;;;;0.50;0.50;;;10.90;99.90;;;;;;4942371;28;20053;-81
2023/01/06 03:28:52;;;;;;;0.52;0.52;;;11.00;99.90;;;;;;4939242;28;20805;-81
2023/01/06 03:31:41;;;;;;;0.60;0.60;;;11.00;99.90;;;;;;4937635;28;20049;-81
2023/01/06 03:34:48;;;;;;;0.60;0.60;;;10.90;99.90;;;;;;4945743;28;20065;-80
2023/01/06 03:37:52;;;;;;;0.60;0.60;;;11.00;99.90;;;;;;4940432;28;21394;-81
2023/01/06 03:40:30;;;;;;;0.60;0.60;;;10.90;99.90;;;;;;4944907;28;20073;-81
2023/01/06 03:43:17;;;;;;;0.60;0.60;;;11.00;99.90;;;;;;4940554;28;20110;-82
2023/01/06 03:45:56;;;;;;;0.60;0.60;;;10.90;99.90;;;;;;4943669;28;20048;-81
2023/01/06 03:48:49;;;;;;;0.60;0.60;;;11.00;99.90;;;;;;4940921;28;20049;-81
2023/01/06 03:51:15;;;;;;;0.60;0.60;;;10.90;99.90;;;;;;4956473;28;20119;-81
2023/01/06 03:54:05;;;;;;;0.60;0.60;;;10.90;99.90;;;;;;4942480;28;20072;-81
2023/01/06 03:56:45;;;;;;;0.60;0.60;;;10.90;99.90;;;;;;4930619;28;20049;-81
2023/01/06 03:59:22;;;;;;;0.50;0.50;;;10.90;99.90;;;;;;4936889;28;20213;-81
2023/01/06 04:01:49;;;;;;;0.50;0.50;;;10.80;99.90;;;;;;4938572;28;20462;-80
2023/01/06 04:04:18;;;;;;;0.50;0.50;;;10.90;99.90;;;;;;4944869;28;20041;-81
2023/01/06 04:06:44;;;;;;;0.50;0.50;;;10.90;99.90;;;;;;4979785;28;20842;-81
2023/01/06 04:09:11;;;;;;;0.50;0.50;;;10.90;99.90;;;;;;4941738;28;20057;-81
2023/01/06 04:14:21;;;;;;;0.60;0.60;;;10.90;99.90;;;;;;4938767;28;20476;-80
2023/01/06 04:16:47;;;;;;;0.50;0.50;;;10.90;99.90;;;;;;4936206;28;20479;-80
2023/01/06 04:19:13;;;;;;;0.50;0.50;;;10.90;99.90;;;;;;4929275;28;20676;-81
2023/01/06 04:21:39;;;;;;;0.50;0.50;;;10.80;99.90;;;;;;4931483;28;20136;-81
2023/01/06 04:24:05;;;;;;;0.50;0.50;;;10.90;99.90;;;;;;4935711;28;20061;-80
2023/01/06 04:26:32;;;;;;;0.60;0.60;;;10.90;99.90;;;;;;4945040;28;20137;-80
2023/01/06 04:28:59;;;;;;;0.60;0.60;;;10.90;99.90;;;;;;4932788;28;20053;-80
2023/01/06 04:31:25;;;;;;;0.50;0.50;;;10.80;99.90;;;;;;4935599;28;20049;-81
2023/01/06 04:33:51;;;;;;;0.60;0.60;;;10.90;99.90;;;;;;4928705;28;20537;-81
2023/01/06 04:36:19;;;;;;;0.60;0.60;;;10.90;99.90;;;;;;4920616;28;20804;-82
2023/01/06 04:38:45;;;;;;;0.60;0.60;;;10.90;99.90;;;;;;4924243;28;20663;-81
2023/01/06 04:41:11;;;;;;;0.50;0.50;;;10.90;99.90;;;;;;4931610;28;20041;-80
2023/01/06 04:43:37;;;;;;;0.60;0.60;;;10.90;99.90;;;;;;4930262;28;20056;-82
2023/01/06 04:46:03;;;;;;;0.60;0.60;;;10.90;99.90;;;;;;4938797;28;20518;-81
2023/01/06 04:48:29;;;;;;;0.55;0.55;;;10.90;99.90;;;;;;4936923;28;20095;-81
2023/01/06 04:51:02;;;;;;;0.50;0.50;;;10.90;99.90;;;;;;4935138;28;20049;-81
2023/01/06 04:53:28;;;;;;;0.60;0.60;;;10.90;99.90;;;;;;4929402;28;20422;-81
2023/01/06 04:55:54;;;;;;;0.50;0.50;;;10.90;99.90;;;;;;4939332;28;20496;-80
2023/01/06 04:58:21;;;;;;;0.60;0.60;;;10.90;99.90;;;;;;4923870;28;20402;-81
2023/01/06 05:00:46;;;;;;;0.60;0.60;;;10.90;99.90;;;;;;4931547;28;20786;-80
2023/01/06 05:03:12;;;;;;;0.50;0.50;;;10.90;99.90;;;;;;4938608;28;20092;-80
2023/01/06 05:05:38;;;;;;;0.52;0.52;;;10.90;99.90;;;;;;4938804;28;20827;-81
2023/01/06 05:08:04;;;;;;;0.60;0.60;;;10.90;99.90;;;;;;4923104;28;20053;-80
2023/01/06 05:10:30;;;;;;;0.50;0.50;;;10.90;99.90;;;;;;4937640;28;20050;-81
2023/01/06 05:12:56;;;;;;;0.50;0.50;;;10.90;99.90;;;;;;4929560;28;20478;-81
2023/01/06 05:15:22;;;;;;;0.60;0.60;;;10.90;99.90;;;;;;4961535;28;20045;-82
2023/01/06 05:17:48;;;;;;;0.57;0.57;;;10.90;99.90;;;;;;4947342;28;20473;-80
2023/01/06 05:20:14;;;;;;;0.52;0.52;;;10.90;99.90;;;;;;4968533;28;20048;-81
2023/01/06 05:22:40;;;;;;;0.90;0.60;;;10.90;99.90;;;;;;4948387;28;20076;-81
2023/01/06 05:25:06;;;;;;;0.60;0.60;;;11.00;99.90;;;;;;4945714;28;20051;-81
2023/01/06 05:27:32;;;;;;;0.50;0.50;;;10.90;99.90;;;;;;4966008;28;20052;-81
2023/01/06 05:29:58;;;;;;;0.60;0.60;;;11.00;99.90;;;;;;4966252;28;20359;-80
2023/01/06 05:32:23;;;;;;;0.50;0.50;;;11.00;99.90;;;;;;4963061;28;20850;-80
2023/01/06 05:34:49;;;;;;;0.60;0.60;;;10.90;99.90;;;;;;4961310;28;20065;-82
2023/01/06 05:37:15;;;;;;;0.60;0.60;;;10.90;99.90;;;;;;4943453;28;20052;-81
2023/01/06 05:39:41;;;;;;;0.60;0.60;;;11.00;99.90;;;;;;4944131;28;20055;-81
2023/01/06 05:42:07;;;;;;;0.50;0.50;;;11.00;99.90;;;;;;4929269;28;20549;-80
2023/01/06 05:44:33;;;;;;;0.50;0.50;;;11.00;99.90;;;;;;4956689;28;20139;-80
2023/01/06 05:46:59;;;;;;;0.60;0.60;;;11.00;99.90;;;;;;4957197;28;20056;-82
2023/01/06 05:49:25;;;;;;;0.60;0.60;;;11.00;99.90;;;;;;4948135;28;20091;-82
2023/01/06 05:51:50;;;;;;;0.50;0.50;;;11.10;99.90;;;;;;4956334;28;20169;-81
2023/01/06 05:54:16;;;;;;;0.60;0.60;;;11.10;99.90;;;;;;4971489;28;20059;-82
2023/01/06 05:56:42;;;;;;;0.50;0.50;;;11.10;99.90;;;;;;4946109;28;20582;-82
2023/01/06 05:59:08;;;;;;;0.50;0.50;;;11.10;99.90;;;;;;4950076;28;20075;-81
2023/01/06 06:01:34;;;;;;;0.50;0.50;;;11.10;99.90;;;;;;4979345;28;20097;-81
2023/01/06 06:04:00;;;;;;;0.60;0.60;;;11.00;99.90;;;;;;4969929;28;20480;-81
2023/01/06 06:06:28;;;;;;;0.60;0.60;;;11.00;99.90;;;;;;4945210;28;20671;-80
2023/01/06 06:08:53;;;;;;;0.57;0.57;;;11.00;99.90;;;;;;4960389;28;20087;-80
2023/01/06 06:11:21;;;;;;;0.50;0.50;;;11.00;99.90;;;;;;4970145;28;20459;-81
2023/01/06 06:13:55;;;;;;;0.52;0.52;;;11.00;99.90;;;;;;4937020;28;20061;-81
2023/01/06 06:16:23;;;;;;;0.60;0.60;;;11.00;99.90;;;;;;4925421;28;20068;-81
2023/01/06 06:18:51;;;;;;;0.60;0.60;;;11.00;99.90;;;;;;4923335;28;20068;-80
2023/01/06 06:21:20;;;;;;;0.60;0.60;;;11.00;99.90;;;;;;4915298;28;20054;-81
2023/01/06 06:23:46;;;;;;;0.60;0.60;;;11.00;99.90;;;;;;4925545;28;20054;-81
2023/01/06 06:26:13;;;;;;;0.50;0.50;;;11.00;99.90;;;;;;4929600;28;20320;-80
2023/01/06 06:28:39;;;;;;;0.57;0.57;;;11.00;99.90;;;;;;4918257;28;20231;-81
2023/01/06 06:31:07;;;;;;;0.60;0.60;;;11.00;99.90;;;;;;4927070;28;20054;-80
2023/01/06 06:33:34;;;;;;;0.60;0.60;;;11.00;99.90;;;;;;4935542;28;20092;-81
2023/01/06 06:36:01;;;;;;;0.60;0.60;;;11.00;99.90;;;;;;4925145;28;20400;-81
2023/01/06 06:38:27;;;;;;;0.50;0.50;;;11.00;99.90;;;;;;4925314;28;21138;-81
2023/01/06 06:40:53;;;;;;;0.52;0.52;;;11.00;99.90;;;;;;4919061;28;20139;-81
2023/01/06 06:43:20;;;;;;;0.50;0.50;;;11.00;99.90;;;;;;4920133;28;20569;-81
2023/01/06 06:45:46;;;;;;;0.50;0.50;;;11.00;99.90;;;;;;4928155;28;20132;-81
2023/01/06 06:48:12;;;;;;;0.60;0.60;;;10.90;99.90;;;;;;4952557;28;20062;-81
2023/01/06 06:50:38;;;;;;;0.50;0.50;;;11.00;99.90;;;;;;4920902;28;20466;-81
2023/01/06 06:53:05;;;;;;;0.50;0.50;;;10.90;99.90;;;;;;4927685;28;20064;-81
2023/01/06 06:55:31;;;;;;;0.60;0.60;;;10.80;99.90;;;;;;4926610;28;20049;-81
2023/01/06 06:57:58;;;;;;;0.60;0.60;;;10.90;99.90;;;;;;4931594;28;20092;-80
2023/01/06 07:00:24;;;;;;;0.52;0.52;;;10.70;99.90;;;;;;4939376;28;20046;-81
2023/01/06 07:02:50;;;;;;;0.60;0.60;;;10.70;99.90;;;;;;4925790;28;20054;-81
2023/01/06 07:05:17;;;;;;;0.50;0.50;;;10.70;99.90;;;;;;4925381;28;20146;-82
2023/01/06 07:07:44;;;;;;;0.50;0.50;;;10.70;99.90;;;;;;4923353;28;20115;-82
2023/01/06 07:10:14;;;;;;;0.60;0.60;;;10.70;99.90;;;;;;4922206;28;20596;-81
2023/01/06 07:12:40;;;;;;;0.57;0.57;;;10.60;99.90;;;;;;4958666;28;20111;-82
2023/01/06 07:15:08;;;;;;;0.50;0.50;;;10.60;99.90;;;;;;4940055;28;20175;-82
2023/01/06 07:17:34;;;;;;;0.50;0.50;;;10.60;99.90;;;;;;4942095;28;20325;-82
2023/01/06 07:20:00;;;;;;;0.50;0.50;;;10.60;99.90;;;;;;4942938;28;20077;-82
2023/01/06 07:22:25;;;;;;;0.50;0.50;;;10.60;99.90;;;;;;4927072;28;20523;-82
2023/01/06 07:24:51;;;;;;;0.50;0.50;;;10.60;99.90;;;;;;4925021;28;20137;-82
2023/01/06 07:27:17;;;;;;;0.50;0.50;;;10.60;99.90;;;;;;4929945;28;20104;-82
2023/01/06 07:29:43;;;;;;;0.50;0.50;;;10.60;99.90;;;;;;4950826;28;20419;-82
2023/01/06 07:32:09;;;;;;;0.50;0.50;;;10.60;99.90;;;;;;4949049;28;20099;-80
2023/01/06 07:34:35;;;;;;;0.50;0.50;;;10.60;99.90;;;;;;4941970;28;20971;-81
2023/01/06 07:37:00;;;;;;;0.50;0.50;;;10.60;99.90;;;;;;4943423;28;20049;-81
2023/01/06 07:39:26;;;;;;;0.50;0.50;;;10.60;99.90;;;;;;4937088;28;20053;-81
2023/01/06 07:41:52;;;;;;;0.60;0.60;;;10.60;99.90;;;;;;4927243;28;20041;-81
2023/01/06 07:44:18;;;;;;;0.60;0.60;;;10.60;99.90;;;;;;4925801;28;20811;-81
2023/01/06 07:46:45;;;;;;;0.50;0.50;;;10.70;99.90;;;;;;4905499;28;20045;-83
2023/01/06 07:49:11;;;;;;;0.60;0.60;;;10.70;99.90;;;;;;4946607;28;20743;-82
2023/01/06 07:51:39;;;;;;;0.50;0.50;;;10.60;99.90;;;;;;4935886;28;20474;-83
2023/01/06 07:54:05;;;;;;;0.50;0.50;;;10.60;99.90;;;;;;4930945;28;20320;-82
2023/01/06 07:56:31;;;;;;;0.50;0.50;;;10.70;99.90;;;;;;4948991;28;20452;-82
2023/01/06 07:58:57;;;;;;;0.60;0.60;;;10.60;99.90;;;;;;4945075;28;20045;-82
2023/01/06 08:01:23;;;;;;;0.50;0.50;;;10.60;99.90;;;;;;4944442;28;20045;-81
2023/01/06 08:03:48;;;;;;;0.60;0.60;;;10.60;99.90;;;;;;4958683;28;20050;-81
2023/01/06 08:06:14;;;;;;;0.50;0.50;;;10.70;99.90;;;;;;4936877;28;20504;-84
2023/01/06 08:08:40;;;;;;;0.50;0.50;;;10.70;99.90;;;;;;4924728;28;20787;-83
2023/01/06 08:11:09;;;;;;;0.60;0.60;;;10.70;99.90;;;;;;4948854;28;20400;-83
2023/01/06 08:13:36;;;;;;;0.50;0.50;;;10.70;99.90;;;;;;4950283;28;20141;-82
2023/01/06 08:16:06;;;;;;;0.50;0.50;;;10.60;99.90;;;;;;4956568;28;20056;-83
2023/01/06 08:18:33;;;;;;;0.50;0.50;;;10.60;99.90;;;;;;4955530;28;20071;-81
2023/01/06 08:21:00;;;;;;;0.50;0.50;;;10.80;99.90;;;;;;4974339;28;20043;-82
2023/01/06 08:23:27;;;;;;;0.60;0.60;;;10.80;99.90;;;;;;4947845;28;20110;-83
2023/01/06 08:25:59;;;;;;;0.50;0.50;;;10.80;99.90;;;;;;4955953;28;20049;-82
2023/01/06 08:28:26;;;;;;;0.50;0.50;;;10.80;99.90;;;;;;4949027;28;20114;-81
2023/01/06 08:30:52;;;;;;;0.60;0.60;;;10.80;99.90;;;;;;4965598;28;20373;-82
2023/01/06 08:33:18;;;;;;;0.50;0.50;;;10.90;99.90;;;;;;4953500;28;20558;-81
2023/01/06 08:35:46;;;;;;;0.60;0.60;;;10.90;99.90;;;;;;4951110;28;20139;-82
2023/01/06 08:38:12;;;;;;;0.50;0.50;;;10.90;99.90;;;;;;4951759;28;20237;-82
2023/01/06 08:40:38;;;;;;;0.60;0.60;;;11.00;99.90;;;;;;4949825;28;20102;-83
2023/01/06 08:43:04;;;;;;;0.60;0.60;;;11.00;99.90;;;;;;4948382;28;20984;-82
2023/01/06 08:45:30;;;;;;;0.50;0.50;;;10.90;99.90;;;;;;4948457;28;20043;-81
2023/01/06 08:47:57;;;;;;;0.50;0.50;;;10.90;99.90;;;;;;4952968;28;20048;-83
2023/01/06 08:50:23;;;;;;;0.60;0.60;;;10.80;99.90;;;;;;4950451;28;20117;-82
2023/01/06 08:52:49;;;;;;;0.50;0.50;;;10.70;99.90;;;;;;4950055;28;20044;-82
2023/01/06 08:55:15;;;;;;;0.60;0.60;;;10.60;99.90;;;;;;4931728;28;20049;-82
2023/01/06 08:57:41;;;;;;;0.60;0.60;;;10.60;99.90;;;;;;4954602;28;20049;-81
2023/01/06 09:00:08;;;;;;;0.60;0.60;;;10.60;99.90;;;;;;4948816;28;20048;-83
2023/01/06 09:02:33;;;;;;;0.60;0.60;;;10.60;99.90;;;;;;4955397;28;20048;-82
2023/01/06 09:04:59;;;;;;;0.60;0.60;;;10.60;99.90;;;;;;4969455;28;20047;-82
2023/01/06 09:07:25;;;;;;;0.60;0.60;;;10.50;99.90;;;;;;4963221;28;20052;-82
2023/01/06 09:09:51;;;;;;;0.60;0.60;;;10.60;99.90;;;;;;4988289;28;21106;-81
2023/01/06 09:12:17;;;;;;;0.60;0.60;;;10.70;99.90;;;;;;4925997;28;21030;-81
2023/01/06 09:14:43;;;;;;;0.60;0.60;;;10.80;99.90;;;;;;4951623;28;20059;-81
2023/01/06 09:17:09;;;;;;;0.50;0.50;;;10.80;99.90;;;;;;4951355;28;20415;-80
2023/01/06 09:19:35;;;;;;;0.50;0.50;;;10.80;99.90;;;;;;4934259;28;20045;-82
2023/01/06 09:22:01;;;;;;;0.60;0.60;;;10.80;99.90;;;;;;4953645;28;20434;-81
2023/01/06 09:24:27;;;;;;;0.50;0.50;;;10.90;99.90;;;;;;4951297;28;20484;-82
2023/01/06 09:26:53;;;;;;;0.60;0.60;;;10.90;99.90;;;;;;4958173;28;20099;-80
2023/01/06 09:29:20;;;;;;;0.60;0.60;;;11.00;99.90;;;;;;4952225;28;20057;-81
2023/01/06 09:31:46;;;;;;;0.60;0.60;;;11.00;99.90;;;;;;4953580;28;20845;-80
2023/01/06 09:34:11;;;;;;;0.50;0.50;;;11.00;99.90;;;;;;4943475;28;20053;-80
2023/01/06 09:36:38;;;;;;;0.50;0.50;;;11.00;99.90;;;;;;4952490;28;20060;-80
2023/01/06 09:39:03;;;;;;;0.60;0.60;;;11.10;99.90;;;;;;4983178;28;20051;-82
2023/01/06 09:42:07;;;;;;;0.50;0.50;;;11.10;99.90;;;;;;4954436;28;20064;-80
2023/01/06 09:44:40;;;;;;;0.60;0.60;;;11.00;99.90;;;;;;4985353;28;20070;-81
2023/01/06 09:47:12;;;;;;;0.60;0.60;;;11.10;99.90;;;;;;4958185;28;20421;-80
2023/01/06 09:49:56;;;;;;;0.52;0.52;;;11.00;99.90;;;;;;4967704;28;20102;-81
2023/01/06 09:52:28;;;;;;;0.60;0.60;;;10.90;99.90;;;;;;4955340;28;20466;-81
2023/01/06 09:54:58;;;;;;;0.60;0.60;;;10.90;99.90;;;;;;4929042;28;20570;-81
2023/01/06 09:57:54;;;;;;;0.50;0.50;;;10.80;99.90;;;;;;4957211;28;20056;-81
2023/01/06 10:00:46;;;;;;;0.60;0.60;;;10.80;99.90;;;;;;4956110;28;20627;-81
2023/01/06 10:03:18;;;;;;;0.60;0.60;;;10.90;99.90;;;;;;4950517;28;20063;-83
2023/01/06 10:06:22;;;;;;;0.55;0.55;;;11.00;99.90;;;;;;4964233;28;20101;-81
2023/01/06 10:09:20;;;;;;;0.57;0.57;;;11.00;99.90;;;;;;4969815;28;20053;-81
2023/01/06 10:12:05;;;;;;;0.55;0.55;;;11.00;99.90;;;;;;4962089;28;20147;-81
2023/01/06 10:15:15;;;;;;;0.50;0.50;;;11.10;99.90;;;;;;4966806;28;20041;-81
2023/01/06 10:17:41;;;;;;;0.60;0.60;;;11.10;99.90;;;;;;4978318;28;20044;-80
2023/01/06 10:20:07;;;;;;;0.50;0.50;;;11.00;99.90;;;;;;4984893;28;20520;-81
2023/01/06 10:23:09;;;;;;;0.60;0.60;;;11.00;99.90;;;;;;4944255;28;20049;-80
2023/01/06 10:25:52;;;;;;;0.57;0.57;;;11.00;99.90;;;;;;4957512;28;20547;-79
2023/01/06 10:28:21;;;;;;;0.50;0.50;;;11.10;99.90;;;;;;4987361;28;20049;-78
2023/01/06 10:30:51;;;;;;;0.60;0.60;;;11.10;99.90;;;;;;4993451;28;20048;-80
2023/01/06 10:33:26;;;;;;;0.57;0.57;;;11.00;99.90;;;;;;4980040;28;20113;-80
2023/01/06 10:35:54;;;;;;;0.50;0.50;;;11.10;99.90;;;;;;4975130;28;20985;-79
2023/01/06 10:38:29;;;;;;;0.50;0.50;;;11.10;99.90;;;;;;4953931;28;20045;-80
2023/01/06 10:41:01;;;;;;;0.60;0.60;;;11.10;99.90;;;;;;4965696;28;20254;-81
2023/01/06 10:43:28;;;;;;;0.60;0.60;;;11.10;99.90;;;;;;4947787;28;20652;-80
2023/01/06 10:45:54;;;;;;;0.60;0.60;;;11.10;99.90;;;;;;4947448;28;20332;-81
2023/01/06 10:48:28;;;;;;;0.60;0.60;;;11.20;99.90;;;;;;4932057;28;20060;-80
2023/01/06 10:50:55;;;;;;;0.50;0.50;;;11.20;99.90;;;;;;4948315;28;20050;-81
2023/01/06 10:53:21;;;;;;;0.50;0.50;;;11.20;99.90;;;;;;4943855;28;20216;-79
2023/01/06 10:55:56;;;;;;;0.50;0.50;;;11.30;99.90;;;;;;4963438;28;20412;-80
2023/01/06 10:58:37;;;;;;;0.57;0.57;;;11.40;99.90;;;;;;4945612;28;20515;-77
2023/01/06 11:01:10;;;;;;;0.55;0.55;;;11.50;99.90;;;;;;4962712;28;20052;-79
2023/01/06 11:03:41;;;;;;;0.50;0.50;;;11.60;99.90;;;;;;4953298;28;20064;-80
2023/01/06 11:06:27;;;;;;;0.60;0.60;;;11.50;99.90;;;;;;4971916;28;20577;-80
2023/01/06 11:08:53;;;;;;;0.50;0.50;;;11.50;99.90;;;;;;4962697;28;20055;-81
2023/01/06 11:11:19;;;;;;;0.50;0.50;;;11.40;99.90;;;;;;4964268;28;20087;-80
2023/01/06 11:13:49;;;;;;;0.50;0.50;;;11.50;99.90;;;;;;4959167;28;20061;-80
2023/01/06 11:16:35;;;;;;;0.50;0.50;;;11.40;99.90;;;;;;4978960;28;20140;-79
2023/01/06 11:19:06;;;;;;;0.50;0.50;;;11.30;99.90;;;;;;4978014;28;20048;-80
2023/01/06 11:21:41;;;;;;;0.50;0.50;;;11.30;99.90;;;;;;4974866;28;20056;-80
2023/01/06 11:24:25;;;;;;;0.50;0.50;;;11.20;99.90;;;;;;4957008;28;20056;-80
2023/01/06 11:27:15;;;;;;;0.60;0.60;;;11.10;99.90;;;;;;4978748;28;20082;-80
2023/01/06 11:29:41;;;;;;;0.60;0.60;;;11.30;99.90;;;;;;4957513;28;20280;-81
2023/01/06 11:32:26;;;;;;;0.55;0.55;;;11.50;99.90;;;;;;4956992;28;20300;-80
2023/01/06 11:35:01;;;;;;;0.60;0.60;;;11.50;99.90;;;;;;4958013;28;20053;-79
2023/01/06 11:37:34;;;;;;;0.60;0.60;;;11.40;99.90;;;;;;4958986;28;20081;-80
2023/01/06 11:40:24;;;;;;;0.50;0.50;;;11.40;99.90;;;;;;4958593;28;20123;-81
2023/01/06 11:42:56;;;;;;;0.60;0.60;;;11.50;99.90;;;;;;4958642;28;20064;-81
2023/01/06 11:45:53;;;;;;;0.60;0.60;;;11.60;99.90;;;;;;4954664;28;20106;-81
2023/01/06 11:48:32;;;;;;;0.60;0.60;;;11.50;99.90;;;;;;4958030;28;20057;-79
2023/01/06 11:51:00;;;;;;;0.50;0.50;;;11.40;99.90;;;;;;4958278;28;20963;-78
2023/01/06 11:53:28;;;;;;;0.50;0.50;;;11.40;99.90;;;;;;4961121;28;20664;-80
2023/01/06 11:56:01;;;;;;;0.50;0.50;;;11.30;99.90;;;;;;4945320;28;20092;-80
2023/01/06 11:58:54;;;;;;;0.50;0.50;;;11.40;99.90;;;;;;4970440;28;20471;-80
2023/01/06 12:01:42;;;;;;;0.50;0.50;;;11.60;99.90;;;;;;4956981;28;20060;-80
2023/01/06 12:04:23;;;;;;;0.50;0.50;;;11.60;99.90;;;;;;4972888;28;20044;-79
2023/01/06 12:06:53;;;;;;;0.60;0.60;;;11.60;99.90;;;;;;4972377;28;20906;-80
2023/01/06 12:09:29;;;;;;;0.50;0.50;;;11.50;99.90;;;;;;4959280;28;20596;-80
2023/01/06 12:12:03;;;;;;;0.50;0.50;;;11.50;99.90;;;;;;4973335;28;20213;-80
2023/01/06 12:14:34;;;;;;;0.50;0.50;;;11.40;99.90;;;;;;4959129;28;21039;-80
2023/01/06 12:17:12;;;;;;;0.50;0.50;;;11.50;99.90;;;;;;4957327;28;20053;-79
2023/01/06 12:19:50;;;;;;;0.50;0.50;;;11.30;99.90;;;;;;4977361;28;20056;-80
2023/01/06 12:22:35;;;;;;;0.60;0.60;;;11.30;99.90;;;;;;4952495;28;20080;-79
2023/01/06 12:25:02;;;;;;;0.50;0.50;;;11.20;99.90;;;;;;4968957;28;20631;-79
2023/01/06 12:27:59;;;;;;;0.50;0.50;;;11.10;99.90;;;;;;4972800;28;20049;-80
2023/01/06 12:30:39;;;;;;;0.60;0.60;;;11.00;99.90;;;;;;4940940;28;20444;-79
2023/01/06 12:33:26;;;;;;;0.50;0.50;;;11.00;99.90;;;;;;4953809;28;20076;-80
2023/01/06 12:35:58;;;;;;;0.50;0.50;;;11.00;99.90;;;;;;4963566;28;20373;-80
2023/01/06 12:38:30;;;;;;;0.50;0.50;;;11.10;99.90;;;;;;4973683;28;20491;-79
2023/01/06 12:41:22;;;;;;;0.60;0.60;;;11.30;99.90;;;;;;4982077;28;20808;-79
2023/01/06 12:44:24;;;;;;;0.50;0.50;;;11.30;99.90;;;;;;4989393;28;20130;-80
2023/01/06 12:46:58;;;;;;;0.50;0.50;;;11.30;99.90;;;;;;4967438;28;20063;-80
2023/01/06 12:49:40;;;;;;;0.50;0.50;;;11.40;99.90;;;;;;4989007;28;20137;-79
2023/01/06 12:52:11;;;;;;;0.50;0.50;;;11.40;99.90;;;;;;4970663;28;20051;-80
2023/01/06 12:54:37;;;;;;;0.50;0.50;;;11.40;99.90;;;;;;4968753;28;20052;-79
2023/01/06 12:57:10;;;;;;;0.50;0.50;;;11.50;99.90;;;;;;4985510;28;20247;-80
2023/01/06 12:59:51;;;;;;;0.60;0.60;;;11.50;99.90;;;;;;4982037;28;20826;-80
2023/01/06 13:02:37;;;;;;;0.50;0.50;;;11.60;99.90;;;;;;4960785;28;20101;-79
2023/01/06 13:05:22;;;;;;;0.52;0.52;;;11.50;99.90;;;;;;4969015;28;20419;-79
2023/01/06 13:08:06;;;;;;;0.60;0.60;;;11.40;99.90;;;;;;4962933;28;20071;-77
2023/01/06 13:10:46;;;;;;;0.60;0.60;;;11.20;99.90;;;;;;4963124;28;20138;-80
2023/01/06 13:13:45;;;;;;;0.60;0.60;;;11.10;99.90;;;;;;4956049;28;20045;-80